sensor_id;sensor_type;location;lat;lon;timestamp;pressure;altitude;pressure_sealevel;temperature;humidity
62072;BME280;48031;48.542;13.232;2023-05-23T00:03:20;96804.16;;;24.10;45.57
62072;BME280;48031;48.542;13.232;2023-05-23T00:07:23;96801.09;;;23.99;46.40
62072;BME280;48031;48.542;13.232;2023-05-23T00:11:25;96798.56;;;23.94;46.06
62072;BME280;48031;48.542;13.232;2023-05-23T00:15:31;96800.88;;;23.92;46.66
62072;BME280;48031;48.542;13.232;2023-05-23T00:19:34;96810.06;;;23.81;46.42
62072;BME280;48031;48.542;13.232;2023-05-23T00:23:37;96808.91;;;23.82;46.07
62072;BME280;48031;48.542;13.232;2023-05-23T00:27:39;96806.97;;;23.70;46.35
62072;BME280;48031;48.542;13.232;2023-05-23T00:31:44;96799.38;;;23.67;45.38
62072;BME280;48031;48.542;13.232;2023-05-23T00:35:47;96793.72;;;23.91;44.81
62072;BME280;48031;48.542;13.232;2023-05-23T00:39:51;96806.34;;;23.49;45.76
62072;BME280;48031;48.542;13.232;2023-05-23T00:43:53;96815.84;;;23.24;48.37
62072;BME280;48031;48.542;13.232;2023-05-23T00:47:54;96825.16;;;23.19;48.64
62072;BME280;48031;48.542;13.232;2023-05-23T00:51:57;96823.00;;;23.00;49.20
62072;BME280;48031;48.542;13.232;2023-05-23T00:55:59;96832.44;;;22.87;49.02
62072;BME280;48031;48.542;13.232;2023-05-23T01:00:01;96832.22;;;23.04;48.54
62072;BME280;48031;48.542;13.232;2023-05-23T01:04:03;96833.84;;;23.05;48.13
62072;BME280;48031;48.542;13.232;2023-05-23T01:08:05;96827.59;;;22.96;48.40
62072;BME280;48031;48.542;13.232;2023-05-23T01:16:36;96836.25;;;23.19;48.33
62072;BME280;48031;48.542;13.232;2023-05-23T01:20:47;96848.25;;;23.11;48.97
62072;BME280;48031;48.542;13.232;2023-05-23T01:25:06;96850.91;;;22.83;49.21
62072;BME280;48031;48.542;13.232;2023-05-23T01:29:14;96859.78;;;23.13;48.21
62072;BME280;48031;48.542;13.232;2023-05-23T01:33:21;96850.66;;;22.88;48.26
62072;BME280;48031;48.542;13.232;2023-05-23T01:37:23;96857.09;;;22.68;49.21
62072;BME280;48031;48.542;13.232;2023-05-23T01:41:25;96848.53;;;22.61;48.85
62072;BME280;48031;48.542;13.232;2023-05-23T01:45:27;96847.88;;;22.76;48.98
62072;BME280;48031;48.542;13.232;2023-05-23T01:49:30;96847.50;;;22.65;48.79
62072;BME280;48031;48.542;13.232;2023-05-23T01:53:33;96849.91;;;22.55;48.67
62072;BME280;48031;48.542;13.232;2023-05-23T01:57:37;96846.81;;;22.56;49.43
62072;BME280;48031;48.542;13.232;2023-05-23T02:01:40;96846.91;;;22.60;48.61
62072;BME280;48031;48.542;13.232;2023-05-23T02:05:42;96839.09;;;21.96;51.55
62072;BME280;48031;48.542;13.232;2023-05-23T02:09:44;96840.94;;;22.25;50.80
62072;BME280;48031;48.542;13.232;2023-05-23T02:13:46;96861.56;;;21.94;50.98
62072;BME280;48031;48.542;13.232;2023-05-23T02:17:48;96869.22;;;21.89;51.05
62072;BME280;48031;48.542;13.232;2023-05-23T02:21:50;96869.94;;;22.07;50.31
62072;BME280;48031;48.542;13.232;2023-05-23T02:25:52;96861.41;;;22.12;50.00
62072;BME280;48031;48.542;13.232;2023-05-23T02:29:54;96869.44;;;22.05;50.04
62072;BME280;48031;48.542;13.232;2023-05-23T02:33:56;96855.56;;;21.72;51.48
62072;BME280;48031;48.542;13.232;2023-05-23T02:37:59;96855.59;;;21.63;52.65
62072;BME280;48031;48.542;13.232;2023-05-23T02:42:01;96852.41;;;21.61;52.85
62072;BME280;48031;48.542;13.232;2023-05-23T02:46:03;96852.25;;;21.78;52.02
62072;BME280;48031;48.542;13.232;2023-05-23T02:50:06;96847.38;;;21.75;52.69
62072;BME280;48031;48.542;13.232;2023-05-23T02:54:08;96842.56;;;21.72;52.60
62072;BME280;48031;48.542;13.232;2023-05-23T02:58:11;96848.94;;;21.64;52.82
62072;BME280;48031;48.542;13.232;2023-05-23T03:02:13;96854.75;;;21.50;53.18
62072;BME280;48031;48.542;13.232;2023-05-23T03:06:15;96856.56;;;21.67;52.62
62072;BME280;48031;48.542;13.232;2023-05-23T03:10:17;96856.53;;;21.46;53.27
62072;BME280;48031;48.542;13.232;2023-05-23T03:14:19;96874.84;;;21.30;53.49
62072;BME280;48031;48.542;13.232;2023-05-23T03:18:22;96880.63;;;21.17;53.57
62072;BME280;48031;48.542;13.232;2023-05-23T03:22:25;96884.50;;;21.07;53.39
62072;BME280;48031;48.542;13.232;2023-05-23T03:26:27;96878.00;;;21.20;53.05
62072;BME280;48031;48.542;13.232;2023-05-23T03:30:30;96878.22;;;21.36;52.71
62072;BME280;48031;48.542;13.232;2023-05-23T03:34:33;96885.59;;;21.52;52.51
62072;BME280;48031;48.542;13.232;2023-05-23T03:38:37;96884.16;;;21.46;52.47
62072;BME280;48031;48.542;13.232;2023-05-23T03:42:39;96884.44;;;21.53;52.72
62072;BME280;48031;48.542;13.232;2023-05-23T03:46:43;96882.69;;;21.49;52.49
62072;BME280;48031;48.542;13.232;2023-05-23T03:50:45;96875.34;;;21.53;53.33
62072;BME280;48031;48.542;13.232;2023-05-23T03:54:47;96883.81;;;21.48;52.46
62072;BME280;48031;48.542;13.232;2023-05-23T03:58:50;96882.50;;;21.54;52.23
62072;BME280;48031;48.542;13.232;2023-05-23T04:02:52;96878.72;;;21.58;53.38
62072;BME280;48031;48.542;13.232;2023-05-23T04:06:58;96874.63;;;21.65;53.65
62072;BME280;48031;48.542;13.232;2023-05-23T04:11:00;96875.56;;;21.69;53.33
62072;BME280;48031;48.542;13.232;2023-05-23T04:15:07;96882.78;;;21.82;53.28
62072;BME280;48031;48.542;13.232;2023-05-23T04:19:14;96884.59;;;21.78;53.41
62072;BME280;48031;48.542;13.232;2023-05-23T04:23:17;96888.38;;;21.73;53.53
62072;BME280;48031;48.542;13.232;2023-05-23T04:27:23;96890.25;;;21.81;53.44
62072;BME280;48031;48.542;13.232;2023-05-23T04:31:27;96886.75;;;21.93;52.99
62072;BME280;48031;48.542;13.232;2023-05-23T04:35:30;96875.19;;;22.00;52.84
62072;BME280;48031;48.542;13.232;2023-05-23T04:39:35;96882.47;;;22.04;52.74
62072;BME280;48031;48.542;13.232;2023-05-23T04:44:10;96871.78;;;22.15;52.27
62072;BME280;48031;48.542;13.232;2023-05-23T04:48:21;96885.50;;;22.11;53.06
62072;BME280;48031;48.542;13.232;2023-05-23T04:52:24;96896.19;;;22.13;53.12
62072;BME280;48031;48.542;13.232;2023-05-23T04:56:28;96894.72;;;22.15;53.00
62072;BME280;48031;48.542;13.232;2023-05-23T05:00:31;96899.75;;;22.13;53.22
62072;BME280;48031;48.542;13.232;2023-05-23T05:04:34;96904.69;;;22.08;53.56
62072;BME280;48031;48.542;13.232;2023-05-23T05:08:39;96906.09;;;22.14;53.26
62072;BME280;48031;48.542;13.232;2023-05-23T05:12:46;96911.41;;;22.39;53.15
62072;BME280;48031;48.542;13.232;2023-05-23T05:16:50;96915.50;;;22.01;53.65
62072;BME280;48031;48.542;13.232;2023-05-23T05:20:54;96929.00;;;22.35;52.86
62072;BME280;48031;48.542;13.232;2023-05-23T05:24:57;96925.91;;;22.36;52.99
62072;BME280;48031;48.542;13.232;2023-05-23T05:28:59;96933.78;;;22.47;52.56
62072;BME280;48031;48.542;13.232;2023-05-23T05:33:01;96936.59;;;22.59;52.87
62072;BME280;48031;48.542;13.232;2023-05-23T05:37:05;96935.22;;;22.65;52.64
62072;BME280;48031;48.542;13.232;2023-05-23T05:41:07;96936.09;;;22.77;52.18
62072;BME280;48031;48.542;13.232;2023-05-23T05:45:14;96946.38;;;22.77;52.14
62072;BME280;48031;48.542;13.232;2023-05-23T05:49:17;96950.28;;;22.76;52.36
62072;BME280;48031;48.542;13.232;2023-05-23T05:53:19;96945.06;;;22.74;52.75
62072;BME280;48031;48.542;13.232;2023-05-23T05:57:22;96943.59;;;22.77;52.02
62072;BME280;48031;48.542;13.232;2023-05-23T06:01:23;96948.22;;;22.73;52.39
62072;BME280;48031;48.542;13.232;2023-05-23T06:05:25;96936.56;;;22.79;52.57
62072;BME280;48031;48.542;13.232;2023-05-23T06:09:28;96950.53;;;22.29;53.49
62072;BME280;48031;48.542;13.232;2023-05-23T06:13:29;96952.38;;;22.79;53.29
62072;BME280;48031;48.542;13.232;2023-05-23T06:17:31;96949.03;;;22.86;53.19
62072;BME280;48031;48.542;13.232;2023-05-23T06:21:33;96947.56;;;23.00;52.94
62072;BME280;48031;48.542;13.232;2023-05-23T06:25:37;96956.56;;;23.09;53.42
62072;BME280;48031;48.542;13.232;2023-05-23T06:29:40;96950.38;;;23.12;52.04
62072;BME280;48031;48.542;13.232;2023-05-23T06:33:41;96964.78;;;23.06;52.18
62072;BME280;48031;48.542;13.232;2023-05-23T06:37:44;96960.91;;;22.86;53.64
62072;BME280;48031;48.542;13.232;2023-05-23T06:41:46;96953.56;;;22.90;53.15
62072;BME280;48031;48.542;13.232;2023-05-23T06:45:48;96957.25;;;22.61;55.01
62072;BME280;48031;48.542;13.232;2023-05-23T06:49:50;96950.72;;;22.45;54.96
62072;BME280;48031;48.542;13.232;2023-05-23T06:53:52;96953.41;;;22.54;54.81
62072;BME280;48031;48.542;13.232;2023-05-23T06:57:54;96957.09;;;22.78;55.08
62072;BME280;48031;48.542;13.232;2023-05-23T07:01:57;96957.09;;;22.78;55.16
62072;BME280;48031;48.542;13.232;2023-05-23T07:05:59;96953.13;;;23.00;53.83
62072;BME280;48031;48.542;13.232;2023-05-23T07:10:01;96949.50;;;22.88;53.62
62072;BME280;48031;48.542;13.232;2023-05-23T07:14:04;96959.69;;;22.96;53.02
62072;BME280;48031;48.542;13.232;2023-05-23T07:18:13;96963.28;;;23.20;52.53
62072;BME280;48031;48.542;13.232;2023-05-23T07:22:15;96970.34;;;23.18;52.57
62072;BME280;48031;48.542;13.232;2023-05-23T07:26:17;96970.69;;;23.29;52.47
62072;BME280;48031;48.542;13.232;2023-05-23T07:30:26;96972.25;;;23.63;51.60
62072;BME280;48031;48.542;13.232;2023-05-23T07:34:28;96968.66;;;23.50;51.58
62072;BME280;48031;48.542;13.232;2023-05-23T07:38:34;96974.56;;;24.25;50.74
62072;BME280;48031;48.542;13.232;2023-05-23T07:42:36;96966.97;;;24.22;50.93
62072;BME280;48031;48.542;13.232;2023-05-23T07:46:38;96967.88;;;24.26;50.91
62072;BME280;48031;48.542;13.232;2023-05-23T07:50:40;96974.06;;;23.83;51.09
62072;BME280;48031;48.542;13.232;2023-05-23T07:54:42;96975.97;;;24.19;50.17
62072;BME280;48031;48.542;13.232;2023-05-23T07:58:45;96972.19;;;23.99;51.11
62072;BME280;48031;48.542;13.232;2023-05-23T08:02:47;96974.03;;;24.07;51.16
62072;BME280;48031;48.542;13.232;2023-05-23T08:06:57;96978.72;;;24.31;50.24
62072;BME280;48031;48.542;13.232;2023-05-23T08:11:27;96984.06;;;24.24;48.19
62072;BME280;48031;48.542;13.232;2023-05-23T08:15:31;96976.75;;;24.31;50.58
62072;BME280;48031;48.542;13.232;2023-05-23T08:19:42;96978.78;;;24.47;50.66
62072;BME280;48031;48.542;13.232;2023-05-23T08:23:44;96981.13;;;24.44;49.44
62072;BME280;48031;48.542;13.232;2023-05-23T08:27:46;96970.09;;;24.76;49.68
62072;BME280;48031;48.542;13.232;2023-05-23T08:32:10;96983.69;;;24.65;49.45
62072;BME280;48031;48.542;13.232;2023-05-23T08:36:12;96981.41;;;25.11;49.59
62072;BME280;48031;48.542;13.232;2023-05-23T08:40:21;96986.50;;;25.09;48.62
62072;BME280;48031;48.542;13.232;2023-05-23T08:44:36;96988.56;;;24.96;49.21
62072;BME280;48031;48.542;13.232;2023-05-23T08:48:38;96985.19;;;25.50;49.33
62072;BME280;48031;48.542;13.232;2023-05-23T08:52:56;96988.50;;;25.87;48.32
62072;BME280;48031;48.542;13.232;2023-05-23T08:56:59;96995.00;;;25.59;47.76
62072;BME280;48031;48.542;13.232;2023-05-23T09:01:01;96993.81;;;25.76;48.24
62072;BME280;48031;48.542;13.232;2023-05-23T09:05:04;96993.53;;;26.32;46.77
62072;BME280;48031;48.542;13.232;2023-05-23T09:09:06;96988.41;;;26.53;45.64
62072;BME280;48031;48.542;13.232;2023-05-23T09:13:09;96999.56;;;26.34;44.66
62072;BME280;48031;48.542;13.232;2023-05-23T09:17:19;96992.19;;;26.99;43.47
62072;BME280;48031;48.542;13.232;2023-05-23T09:21:23;96997.09;;;27.28;43.46
62072;BME280;48031;48.542;13.232;2023-05-23T09:25:46;96999.25;;;27.58;44.15
62072;BME280;48031;48.542;13.232;2023-05-23T09:29:49;96998.69;;;26.49;44.88
62072;BME280;48031;48.542;13.232;2023-05-23T09:33:52;96991.00;;;27.00;42.95
62072;BME280;48031;48.542;13.232;2023-05-23T09:37:56;97000.28;;;27.50;43.64
62072;BME280;48031;48.542;13.232;2023-05-23T09:41:59;96995.16;;;27.52;42.48
62072;BME280;48031;48.542;13.232;2023-05-23T09:46:11;96983.53;;;27.50;42.00
62072;BME280;48031;48.542;13.232;2023-05-23T09:50:13;96985.16;;;27.74;43.05
62072;BME280;48031;48.542;13.232;2023-05-23T09:54:15;96998.38;;;27.54;42.17
62072;BME280;48031;48.542;13.232;2023-05-23T09:58:19;96983.69;;;27.80;41.40
62072;BME280;48031;48.542;13.232;2023-05-23T10:06:48;96979.50;;;28.49;41.47
62072;BME280;48031;48.542;13.232;2023-05-23T10:15:03;96953.88;;;29.44;39.75
62072;BME280;48031;48.542;13.232;2023-05-23T10:19:09;96953.59;;;30.03;39.43
62072;BME280;48031;48.542;13.232;2023-05-23T10:23:13;96946.88;;;29.64;36.67
62072;BME280;48031;48.542;13.232;2023-05-23T10:27:16;96962.34;;;28.77;39.34
62072;BME280;48031;48.542;13.232;2023-05-23T10:31:20;96942.53;;;29.73;38.23
62072;BME280;48031;48.542;13.232;2023-05-23T10:39:53;96943.97;;;30.84;35.77
62072;BME280;48031;48.542;13.232;2023-05-23T10:44:11;96942.94;;;30.30;36.20
62072;BME280;48031;48.542;13.232;2023-05-23T10:48:22;96932.72;;;29.94;36.63
62072;BME280;48031;48.542;13.232;2023-05-23T10:52:40;96946.16;;;30.36;36.86
62072;BME280;48031;48.542;13.232;2023-05-23T10:56:42;96958.00;;;29.60;36.67
62072;BME280;48031;48.542;13.232;2023-05-23T11:00:55;96952.53;;;29.30;38.43
62072;BME280;48031;48.542;13.232;2023-05-23T11:05:17;96948.44;;;30.95;36.07
62072;BME280;48031;48.542;13.232;2023-05-23T11:09:20;96947.59;;;30.81;35.51
62072;BME280;48031;48.542;13.232;2023-05-23T11:13:23;96953.38;;;32.15;31.99
62072;BME280;48031;48.542;13.232;2023-05-23T11:17:32;96943.78;;;33.14;29.87
62072;BME280;48031;48.542;13.232;2023-05-23T11:21:34;96950.84;;;32.60;30.96
62072;BME280;48031;48.542;13.232;2023-05-23T11:25:47;96948.47;;;33.35;31.00
62072;BME280;48031;48.542;13.232;2023-05-23T11:34:13;96956.63;;;31.64;31.11
62072;BME280;48031;48.542;13.232;2023-05-23T11:38:16;96953.91;;;32.94;29.81
62072;BME280;48031;48.542;13.232;2023-05-23T11:42:18;96935.75;;;34.16;28.55
62072;BME280;48031;48.542;13.232;2023-05-23T11:46:19;96946.34;;;33.50;28.64
62072;BME280;48031;48.542;13.232;2023-05-23T11:50:22;96930.53;;;34.11;28.56
62072;BME280;48031;48.542;13.232;2023-05-23T11:54:25;96921.59;;;34.91;26.68
62072;BME280;48031;48.542;13.232;2023-05-23T11:58:30;96931.34;;;34.86;26.25
62072;BME280;48031;48.542;13.232;2023-05-23T12:02:37;96929.38;;;34.49;27.45
62072;BME280;48031;48.542;13.232;2023-05-23T12:06:40;96949.34;;;31.46;31.41
62072;BME280;48031;48.542;13.232;2023-05-23T12:10:52;96953.38;;;32.01;31.00
62072;BME280;48031;48.542;13.232;2023-05-23T12:14:55;96962.09;;;31.11;31.79
62072;BME280;48031;48.542;13.232;2023-05-23T12:18:59;96971.88;;;29.94;34.24
62072;BME280;48031;48.542;13.232;2023-05-23T12:23:04;96966.84;;;30.13;34.76
62072;BME280;48031;48.542;13.232;2023-05-23T12:27:07;96964.03;;;30.13;34.80
62072;BME280;48031;48.542;13.232;2023-05-23T12:31:12;96953.06;;;33.04;31.46
62072;BME280;48031;48.542;13.232;2023-05-23T12:35:14;96940.75;;;33.98;28.14
62072;BME280;48031;48.542;13.232;2023-05-23T12:39:23;96944.84;;;33.38;28.42
62072;BME280;48031;48.542;13.232;2023-05-23T12:43:25;96947.31;;;34.29;27.97
62072;BME280;48031;48.542;13.232;2023-05-23T12:47:27;96954.63;;;33.12;28.95
62072;BME280;48031;48.542;13.232;2023-05-23T12:51:29;96945.84;;;33.69;27.99
62072;BME280;48031;48.542;13.232;2023-05-23T12:55:32;96927.72;;;35.16;26.40
62072;BME280;48031;48.542;13.232;2023-05-23T12:59:34;96947.66;;;35.02;26.87
62072;BME280;48031;48.542;13.232;2023-05-23T13:03:35;96942.22;;;34.88;27.39
62072;BME280;48031;48.542;13.232;2023-05-23T13:07:37;96946.81;;;34.75;26.51
62072;BME280;48031;48.542;13.232;2023-05-23T13:11:39;96945.59;;;35.87;25.25
62072;BME280;48031;48.542;13.232;2023-05-23T13:15:41;96931.34;;;36.17;24.56
62072;BME280;48031;48.542;13.232;2023-05-23T13:19:44;96942.19;;;35.45;25.49
62072;BME280;48031;48.542;13.232;2023-05-23T13:23:46;96929.88;;;37.11;22.72
62072;BME280;48031;48.542;13.232;2023-05-23T13:27:48;96921.03;;;36.70;22.83
62072;BME280;48031;48.542;13.232;2023-05-23T13:31:49;96924.47;;;37.69;21.88
62072;BME280;48031;48.542;13.232;2023-05-23T13:35:52;96937.19;;;37.08;22.69
62072;BME280;48031;48.542;13.232;2023-05-23T13:39:54;96936.00;;;37.94;21.74
62072;BME280;48031;48.542;13.232;2023-05-23T13:43:56;96931.56;;;37.77;20.85
62072;BME280;48031;48.542;13.232;2023-05-23T13:47:59;96936.50;;;38.95;21.24
62072;BME280;48031;48.542;13.232;2023-05-23T13:52:01;96945.38;;;37.91;20.76
62072;BME280;48031;48.542;13.232;2023-05-23T13:56:03;96959.41;;;38.59;20.92
62072;BME280;48031;48.542;13.232;2023-05-23T14:00:05;96956.81;;;38.94;19.17
62072;BME280;48031;48.542;13.232;2023-05-23T14:04:09;96961.41;;;38.88;19.88
62072;BME280;48031;48.542;13.232;2023-05-23T14:08:11;96970.31;;;38.90;18.51
62072;BME280;48031;48.542;13.232;2023-05-23T14:12:14;96976.41;;;39.17;18.49
62072;BME280;48031;48.542;13.232;2023-05-23T14:16:16;96970.28;;;38.16;18.60
62072;BME280;48031;48.542;13.232;2023-05-23T14:20:18;96975.44;;;38.66;18.53
62072;BME280;48031;48.542;13.232;2023-05-23T14:24:20;96977.78;;;38.84;18.82
62072;BME280;48031;48.542;13.232;2023-05-23T14:28:23;96968.59;;;38.18;19.25
62072;BME280;48031;48.542;13.232;2023-05-23T14:32:24;96958.97;;;39.44;19.41
62072;BME280;48031;48.542;13.232;2023-05-23T14:36:27;96973.19;;;38.28;19.98
62072;BME280;48031;48.542;13.232;2023-05-23T14:40:29;96964.66;;;36.72;20.44
62072;BME280;48031;48.542;13.232;2023-05-23T14:44:30;96970.69;;;36.51;21.95
62072;BME280;48031;48.542;13.232;2023-05-23T14:48:32;96986.16;;;35.19;22.98
62072;BME280;48031;48.542;13.232;2023-05-23T14:52:34;96977.03;;;34.37;23.80
62072;BME280;48031;48.542;13.232;2023-05-23T14:56:36;96980.41;;;34.21;24.98
62072;BME280;48031;48.542;13.232;2023-05-23T15:00:41;96982.34;;;33.21;25.31
62072;BME280;48031;48.542;13.232;2023-05-23T15:04:47;96972.78;;;32.97;25.19
62072;BME280;48031;48.542;13.232;2023-05-23T15:08:49;96972.38;;;32.95;26.57
62072;BME280;48031;48.542;13.232;2023-05-23T15:12:50;96969.25;;;32.82;26.87
62072;BME280;48031;48.542;13.232;2023-05-23T15:16:52;96974.63;;;32.02;27.25
62072;BME280;48031;48.542;13.232;2023-05-23T15:20:54;96970.94;;;31.10;27.93
62072;BME280;48031;48.542;13.232;2023-05-23T15:24:57;96969.44;;;31.76;27.76
62072;BME280;48031;48.542;13.232;2023-05-23T15:29:01;96972.03;;;30.94;28.61
62072;BME280;48031;48.542;13.232;2023-05-23T15:33:02;96973.81;;;31.52;28.89
62072;BME280;48031;48.542;13.232;2023-05-23T15:37:04;96975.41;;;31.46;29.04
62072;BME280;48031;48.542;13.232;2023-05-23T15:41:06;96961.63;;;30.98;28.75
62072;BME280;48031;48.542;13.232;2023-05-23T15:45:08;96971.13;;;30.66;30.54
62072;BME280;48031;48.542;13.232;2023-05-23T15:49:10;96975.50;;;30.60;30.35
62072;BME280;48031;48.542;13.232;2023-05-23T15:53:26;96980.97;;;30.38;29.60
62072;BME280;48031;48.542;13.232;2023-05-23T15:57:27;96974.88;;;30.19;30.84
62072;BME280;48031;48.542;13.232;2023-05-23T16:01:29;96980.91;;;29.73;30.75
62072;BME280;48031;48.542;13.232;2023-05-23T16:05:31;96991.66;;;29.71;31.41
62072;BME280;48031;48.542;13.232;2023-05-23T16:09:33;96986.78;;;30.05;30.66
62072;BME280;48031;48.542;13.232;2023-05-23T16:13:35;96994.63;;;29.89;31.37
62072;BME280;48031;48.542;13.232;2023-05-23T16:17:36;96988.03;;;29.63;31.01
62072;BME280;48031;48.542;13.232;2023-05-23T16:21:38;96990.56;;;29.35;31.86
62072;BME280;48031;48.542;13.232;2023-05-23T16:25:40;96995.91;;;29.54;31.11
62072;BME280;48031;48.542;13.232;2023-05-23T16:29:43;96986.03;;;30.11;30.22
62072;BME280;48031;48.542;13.232;2023-05-23T16:33:45;96989.50;;;30.52;29.64
62072;BME280;48031;48.542;13.232;2023-05-23T16:37:47;96994.78;;;30.65;28.59
62072;BME280;48031;48.542;13.232;2023-05-23T16:41:49;96996.22;;;31.20;28.86
62072;BME280;48031;48.542;13.232;2023-05-23T16:45:50;97003.44;;;31.35;27.54
62072;BME280;48031;48.542;13.232;2023-05-23T16:49:52;97027.03;;;31.10;27.92
62072;BME280;48031;48.542;13.232;2023-05-23T16:53:54;97030.16;;;31.01;28.09
62072;BME280;48031;48.542;13.232;2023-05-23T16:57:56;97014.88;;;30.88;28.29
62072;BME280;48031;48.542;13.232;2023-05-23T17:01:58;97027.66;;;30.82;28.57
62072;BME280;48031;48.542;13.232;2023-05-23T17:06:00;97026.06;;;29.31;30.31
62072;BME280;48031;48.542;13.232;2023-05-23T17:10:02;97029.09;;;28.56;30.86
62072;BME280;48031;48.542;13.232;2023-05-23T17:14:03;97031.16;;;28.62;31.00
62072;BME280;48031;48.542;13.232;2023-05-23T17:18:05;97027.69;;;28.42;31.77
62072;BME280;48031;48.542;13.232;2023-05-23T17:22:08;97040.28;;;27.57;31.92
62072;BME280;48031;48.542;13.232;2023-05-23T17:26:09;97045.19;;;27.45;32.95
62072;BME280;48031;48.542;13.232;2023-05-23T17:30:12;97044.31;;;28.09;32.38
62072;BME280;48031;48.542;13.232;2023-05-23T17:34:19;97061.22;;;27.70;32.27
62072;BME280;48031;48.542;13.232;2023-05-23T17:38:21;97056.34;;;27.45;32.73
62072;BME280;48031;48.542;13.232;2023-05-23T17:42:23;97057.16;;;27.26;32.94
62072;BME280;48031;48.542;13.232;2023-05-23T17:46:25;97060.94;;;26.95;32.13
62072;BME280;48031;48.542;13.232;2023-05-23T17:50:28;97063.41;;;27.39;32.69
62072;BME280;48031;48.542;13.232;2023-05-23T17:54:30;97060.75;;;26.49;33.04
62072;BME280;48031;48.542;13.232;2023-05-23T17:58:32;97070.41;;;26.05;33.46
62072;BME280;48031;48.542;13.232;2023-05-23T18:02:33;97065.09;;;26.31;32.86
62072;BME280;48031;48.542;13.232;2023-05-23T18:06:35;97068.50;;;26.09;33.50
62072;BME280;48031;48.542;13.232;2023-05-23T18:10:37;97075.88;;;26.01;33.37
62072;BME280;48031;48.542;13.232;2023-05-23T18:14:40;97065.38;;;26.11;33.82
62072;BME280;48031;48.542;13.232;2023-05-23T18:18:42;97065.22;;;25.88;33.93
62072;BME280;48031;48.542;13.232;2023-05-23T18:22:44;97068.72;;;25.85;34.24
62072;BME280;48031;48.542;13.232;2023-05-23T18:26:46;97079.13;;;25.56;34.71
62072;BME280;48031;48.542;13.232;2023-05-23T18:30:48;97076.97;;;25.65;34.55
62072;BME280;48031;48.542;13.232;2023-05-23T18:34:49;97085.50;;;25.29;35.27
62072;BME280;48031;48.542;13.232;2023-05-23T18:38:51;97092.16;;;25.40;35.06
62072;BME280;48031;48.542;13.232;2023-05-23T18:42:53;97098.84;;;25.23;35.86
62072;BME280;48031;48.542;13.232;2023-05-23T18:46:55;97107.56;;;25.10;36.56
62072;BME280;48031;48.542;13.232;2023-05-23T18:50:57;97120.09;;;25.04;36.07
62072;BME280;48031;48.542;13.232;2023-05-23T18:54:59;97129.16;;;24.89;36.15
62072;BME280;48031;48.542;13.232;2023-05-23T18:59:01;97124.13;;;24.54;37.37
62072;BME280;48031;48.542;13.232;2023-05-23T19:03:03;97139.28;;;24.32;38.42
62072;BME280;48031;48.542;13.232;2023-05-23T19:07:05;97144.13;;;24.48;37.50
62072;BME280;48031;48.542;13.232;2023-05-23T19:11:07;97146.56;;;24.25;38.55
62072;BME280;48031;48.542;13.232;2023-05-23T19:15:11;97155.25;;;24.23;38.51
62072;BME280;48031;48.542;13.232;2023-05-23T19:19:12;97152.53;;;24.15;38.85
62072;BME280;48031;48.542;13.232;2023-05-23T19:23:15;97167.56;;;24.14;38.67
62072;BME280;48031;48.542;13.232;2023-05-23T19:27:17;97176.75;;;23.81;39.81
62072;BME280;48031;48.542;13.232;2023-05-23T19:31:19;97183.56;;;23.72;40.32
62072;BME280;48031;48.542;13.232;2023-05-23T19:35:21;97192.56;;;23.81;40.18
62072;BME280;48031;48.542;13.232;2023-05-23T19:39:23;97192.34;;;23.74;40.07
62072;BME280;48031;48.542;13.232;2023-05-23T19:43:24;97187.28;;;23.88;39.64
62072;BME280;48031;48.542;13.232;2023-05-23T19:47:27;97197.25;;;23.56;40.93
62072;BME280;48031;48.542;13.232;2023-05-23T19:51:31;97198.13;;;23.48;41.16
62072;BME280;48031;48.542;13.232;2023-05-23T19:55:33;97204.28;;;23.53;41.23
62072;BME280;48031;48.542;13.232;2023-05-23T19:59:35;97203.94;;;23.55;41.58
62072;BME280;48031;48.542;13.232;2023-05-23T20:03:37;97211.56;;;23.58;42.13
62072;BME280;48031;48.542;13.232;2023-05-23T20:07:39;97215.34;;;23.33;42.45
62072;BME280;48031;48.542;13.232;2023-05-23T20:11:41;97219.16;;;23.28;42.08
62072;BME280;48031;48.542;13.232;2023-05-23T20:15:43;97227.72;;;23.14;43.35
62072;BME280;48031;48.542;13.232;2023-05-23T20:19:45;97231.97;;;23.33;43.17
62072;BME280;48031;48.542;13.232;2023-05-23T20:23:47;97232.53;;;23.26;43.10
62072;BME280;48031;48.542;13.232;2023-05-23T20:27:49;97236.38;;;23.34;43.20
62072;BME280;48031;48.542;13.232;2023-05-23T20:31:51;97245.13;;;23.36;42.61
62072;BME280;48031;48.542;13.232;2023-05-23T20:35:53;97248.59;;;23.33;42.94
62072;BME280;48031;48.542;13.232;2023-05-23T20:39:55;97256.31;;;23.27;43.83
62072;BME280;48031;48.542;13.232;2023-05-23T20:43:57;97255.59;;;23.09;42.22
62072;BME280;48031;48.542;13.232;2023-05-23T20:48:00;97268.91;;;22.95;43.55
62072;BME280;48031;48.542;13.232;2023-05-23T20:52:02;97265.56;;;22.81;43.35
62072;BME280;48031;48.542;13.232;2023-05-23T20:56:06;97260.25;;;22.67;43.61
62072;BME280;48031;48.542;13.232;2023-05-23T21:00:11;97273.84;;;22.90;44.61
62072;BME280;48031;48.542;13.232;2023-05-23T21:04:13;97269.47;;;22.80;44.26
62072;BME280;48031;48.542;13.232;2023-05-23T21:08:18;97271.53;;;22.54;45.12
62072;BME280;48031;48.542;13.232;2023-05-23T21:12:21;97267.41;;;22.30;44.96
62072;BME280;48031;48.542;13.232;2023-05-23T21:16:23;97278.50;;;22.22;45.81
62072;BME280;48031;48.542;13.232;2023-05-23T21:20:25;97283.53;;;22.28;45.67
62072;BME280;48031;48.542;13.232;2023-05-23T21:24:28;97282.94;;;21.97;45.84
62072;BME280;48031;48.542;13.232;2023-05-23T21:28:30;97289.13;;;21.94;45.96
62072;BME280;48031;48.542;13.232;2023-05-23T21:32:33;97287.66;;;21.88;46.41
62072;BME280;48031;48.542;13.232;2023-05-23T21:36:35;97286.53;;;21.89;46.69